Time;durP1;ratioP1;P1;durP2;ratioP2;P2;SDS_P1;SDS_P2;PMS_P1;PMS_P2;Temp;Humidity;BMP_temperature;BMP_pressure;BME280_temperature;BME280_humidity;BME280_pressure;Samples;Min_cycle;Max_cycle;Signal;HPM_P1;HPM_P2
2023/10/31 00:00:24;;;;;;;52.27;26.67;;;9.60;99.90;;;;;;9821794;30;20265;-79
2023/10/31 00:05:45;;;;;;;47.10;22.40;;;9.60;99.90;;;;;;9788608;30;20208;-80
2023/10/31 00:11:07;;;;;;;34.03;18.13;;;9.70;99.90;;;;;;9820258;30;20234;-80
2023/10/31 00:16:28;;;;;;;34.33;18.13;;;9.70;99.90;;;;;;9821837;30;20205;-79
2023/10/31 00:21:50;;;;;;;36.37;19.87;;;9.80;99.90;;;;;;9808245;30;20431;-79
2023/10/31 00:27:11;;;;;;;34.17;20.03;;;9.80;99.90;;;;;;9820216;30;20234;-79
2023/10/31 00:32:32;;;;;;;31.57;16.53;;;9.90;99.90;;;;;;9820067;30;20234;-78
2023/10/31 00:37:54;;;;;;;26.93;15.67;;;10.00;99.90;;;;;;9820628;30;20198;-79
2023/10/31 00:43:14;;;;;;;27.80;14.30;;;10.00;99.90;;;;;;9819539;30;20204;-78
2023/10/31 00:48:36;;;;;;;26.80;14.73;;;10.00;99.90;;;;;;9807177;30;20472;-79
2023/10/31 00:53:57;;;;;;;24.90;14.50;;;10.00;99.90;;;;;;9818523;30;20238;-79
2023/10/31 00:59:19;;;;;;;23.87;14.17;;;10.10;99.90;;;;;;9819095;30;20210;-79
2023/10/31 01:04:40;;;;;;;26.37;15.30;;;10.10;99.90;;;;;;9818667;30;20246;-79
2023/10/31 01:10:03;;;;;;;26.20;14.90;;;10.10;99.90;;;;;;9795613;30;20380;-79
2023/10/31 01:15:24;;;;;;;24.23;13.50;;;10.10;99.90;;;;;;9819511;30;20236;-79
2023/10/31 01:20:45;;;;;;;24.00;13.33;;;10.10;99.90;;;;;;9818896;30;20226;-78
2023/10/31 01:26:06;;;;;;;18.87;11.43;;;10.10;99.90;;;;;;9817886;30;20208;-78
2023/10/31 01:31:28;;;;;;;17.10;11.47;;;10.10;99.90;;;;;;9818202;30;20224;-78
2023/10/31 01:36:49;;;;;;;23.07;12.73;;;10.10;99.90;;;;;;9818085;30;20236;-79
2023/10/31 01:42:14;;;;;;;15.27;10.40;;;10.10;99.90;;;;;;9817821;30;20268;-79
2023/10/31 01:47:35;;;;;;;17.03;10.50;;;10.10;99.90;;;;;;9805424;30;20215;-79
2023/10/31 01:52:58;;;;;;;16.83;10.20;;;10.10;99.90;;;;;;9805021;30;20233;-79
2023/10/31 01:58:23;;;;;;;17.40;11.47;;;10.10;99.90;;;;;;9805058;30;20274;-80
2023/10/31 02:03:44;;;;;;;13.90;9.40;;;10.10;99.90;;;;;;9782214;30;20328;-79
2023/10/31 02:09:06;;;;;;;19.20;12.13;;;10.20;99.90;;;;;;9809607;30;20216;-78
2023/10/31 02:14:27;;;;;;;18.17;11.17;;;10.20;99.90;;;;;;9792401;30;20276;-79
2023/10/31 02:19:49;;;;;;;19.90;11.23;;;10.30;99.90;;;;;;9817169;30;20209;-79
2023/10/31 02:25:17;;;;;;;20.20;11.83;;;10.40;99.90;;;;;;9817925;30;20197;-79
2023/10/31 02:30:40;;;;;;;16.70;10.73;;;10.40;99.90;;;;;;9817275;30;20209;-79
2023/10/31 02:36:02;;;;;;;19.40;12.17;;;10.40;99.90;;;;;;9816681;30;20210;-79
2023/10/31 02:41:23;;;;;;;20.27;12.00;;;10.40;99.90;;;;;;9816853;30;20217;-78
2023/10/31 02:46:44;;;;;;;20.60;11.30;;;10.50;99.90;;;;;;9817388;30;20377;-78
2023/10/31 02:52:05;;;;;;;20.63;11.37;;;10.50;99.90;;;;;;9817350;30;20232;-78
2023/10/31 02:57:27;;;;;;;22.67;12.13;;;10.60;99.90;;;;;;9804482;30;20202;-78
2023/10/31 03:02:48;;;;;;;18.80;11.83;;;10.60;99.90;;;;;;9815697;30;20709;-79
2023/10/31 03:08:11;;;;;;;19.60;13.27;;;10.60;99.90;;;;;;9825878;30;20229;-79
2023/10/31 03:13:33;;;;;;;14.63;10.97;;;10.60;99.90;;;;;;9828687;30;20233;-78
2023/10/31 03:18:54;;;;;;;16.93;12.27;;;10.60;99.90;;;;;;9819088;30;20223;-79
2023/10/31 03:24:15;;;;;;;20.57;12.87;;;10.60;99.90;;;;;;9822612;30;20214;-78
2023/10/31 03:29:36;;;;;;;19.70;13.60;;;10.70;99.90;;;;;;9809920;30;20214;-78
2023/10/31 03:34:58;;;;;;;22.70;12.33;;;10.70;99.90;;;;;;9809550;30;20252;-78
2023/10/31 03:40:19;;;;;;;17.83;13.37;;;10.80;99.90;;;;;;9822280;30;20215;-78
2023/10/31 03:45:41;;;;;;;20.37;12.73;;;10.80;99.90;;;;;;9822931;30;20383;-79
2023/10/31 03:51:02;;;;;;;18.70;13.07;;;10.80;99.90;;;;;;9809056;30;20212;-79
2023/10/31 03:56:23;;;;;;;19.50;13.87;;;10.70;99.90;;;;;;9821556;30;20204;-78
2023/10/31 04:01:45;;;;;;;20.23;14.93;;;10.70;99.90;;;;;;9820596;30;20326;-79
2023/10/31 04:07:06;;;;;;;25.30;14.57;;;10.70;99.90;;;;;;9821097;30;20200;-79
2023/10/31 04:12:27;;;;;;;20.50;13.27;;;10.80;99.90;;;;;;9821010;30;20233;-79
2023/10/31 04:17:49;;;;;;;22.87;14.00;;;10.80;99.90;;;;;;9820526;30;20250;-79
2023/10/31 04:23:11;;;;;;;18.27;13.37;;;10.90;99.90;;;;;;9820610;30;20222;-80
2023/10/31 04:28:32;;;;;;;19.87;14.23;;;10.80;99.90;;;;;;9819397;30;20380;-79
2023/10/31 04:33:54;;;;;;;23.97;13.97;;;10.80;99.90;;;;;;9820930;30;20427;-79
2023/10/31 04:39:15;;;;;;;22.63;13.77;;;10.80;99.90;;;;;;9820015;30;20234;-79
2023/10/31 04:44:36;;;;;;;18.57;13.30;;;10.70;99.90;;;;;;9820552;30;20204;-79
2023/10/31 04:49:57;;;;;;;21.50;14.87;;;10.80;99.90;;;;;;9820428;30;20488;-80
2023/10/31 04:55:18;;;;;;;20.00;13.93;;;10.80;99.90;;;;;;9820202;30;20233;-80
2023/10/31 05:00:40;;;;;;;23.93;15.33;;;10.70;99.90;;;;;;9811608;30;20324;-80
2023/10/31 05:06:01;;;;;;;27.43;16.53;;;10.70;99.90;;;;;;9818462;30;20233;-80
2023/10/31 05:11:22;;;;;;;28.87;15.93;;;10.80;99.90;;;;;;9818382;30;20291;-80
2023/10/31 05:16:44;;;;;;;21.50;15.30;;;10.80;99.90;;;;;;9820201;30;20501;-80
2023/10/31 05:22:05;;;;;;;22.73;14.37;;;10.80;99.90;;;;;;9818943;30;20225;-80
2023/10/31 05:27:26;;;;;;;23.20;16.73;;;10.80;99.90;;;;;;9805585;30;20278;-80
2023/10/31 05:32:49;;;;;;;34.37;21.07;;;10.80;99.90;;;;;;9818781;30;20229;-79
2023/10/31 05:38:10;;;;;;;30.63;18.67;;;10.80;99.90;;;;;;9818993;30;20199;-79
2023/10/31 05:43:33;;;;;;;26.60;17.93;;;10.80;99.90;;;;;;9817862;30;20237;-79
2023/10/31 05:48:54;;;;;;;24.37;15.67;;;10.80;99.90;;;;;;9805056;30;20216;-79
2023/10/31 05:54:16;;;;;;;24.70;18.30;;;10.80;99.90;;;;;;9817323;30;20243;-79
2023/10/31 05:59:37;;;;;;;25.83;16.30;;;10.80;99.90;;;;;;9812510;30;20296;-79
2023/10/31 06:04:58;;;;;;;22.87;15.90;;;10.70;99.90;;;;;;9803856;30;20216;-79
2023/10/31 06:10:21;;;;;;;22.53;14.83;;;10.80;99.90;;;;;;9781812;30;20224;-79
2023/10/31 06:15:43;;;;;;;21.53;15.93;;;10.70;99.90;;;;;;9793061;30;20252;-79
2023/10/31 06:21:04;;;;;;;24.67;14.57;;;10.70;99.90;;;;;;9815553;30;20229;-79
2023/10/31 06:26:25;;;;;;;25.90;16.77;;;10.70;99.90;;;;;;9816835;30;20206;-80
2023/10/31 06:31:47;;;;;;;25.77;15.67;;;10.70;99.90;;;;;;9804322;30;20229;-79
2023/10/31 06:37:08;;;;;;;22.70;15.07;;;10.70;99.90;;;;;;9816911;30;20206;-79
2023/10/31 06:42:30;;;;;;;24.87;16.33;;;10.80;99.90;;;;;;9816319;30;20220;-79
2023/10/31 06:47:51;;;;;;;41.70;25.77;;;10.80;99.90;;;;;;9803908;30;20213;-79
2023/10/31 06:53:12;;;;;;;36.47;23.60;;;10.90;99.90;;;;;;9819276;30;20258;-79
2023/10/31 06:58:33;;;;;;;31.37;21.53;;;10.90;99.90;;;;;;9823253;30;20207;-79
2023/10/31 07:03:55;;;;;;;26.83;18.77;;;10.90;99.90;;;;;;9822456;30;20476;-79
2023/10/31 07:09:17;;;;;;;26.80;15.43;;;10.90;99.90;;;;;;9822832;30;20285;-79
2023/10/31 07:14:40;;;;;;;26.50;16.90;;;10.90;99.90;;;;;;9822618;30;20246;-80
2023/10/31 07:20:01;;;;;;;22.87;16.37;;;10.90;99.90;;;;;;9823538;30;20231;-79
2023/10/31 07:25:22;;;;;;;28.50;17.93;;;10.90;99.90;;;;;;9822391;30;20251;-79
2023/10/31 07:30:44;;;;;;;39.70;20.43;;;11.00;99.90;;;;;;9810067;30;20218;-79
2023/10/31 07:36:06;;;;;;;29.00;20.87;;;11.00;99.90;;;;;;9797063;30;20253;-80
2023/10/31 07:41:27;;;;;;;33.07;23.63;;;11.00;99.90;;;;;;9822888;30;20201;-79
2023/10/31 07:46:48;;;;;;;32.97;19.67;;;11.10;99.90;;;;;;9821345;30;20270;-80
2023/10/31 07:52:10;;;;;;;35.57;22.57;;;11.10;99.90;;;;;;9821574;30;20232;-80
2023/10/31 07:57:31;;;;;;;21.83;14.60;;;11.20;99.90;;;;;;9821379;30;20255;-80
2023/10/31 08:02:52;;;;;;;23.83;16.03;;;11.20;99.90;;;;;;9820105;30;20252;-79
2023/10/31 08:08:14;;;;;;;24.20;15.20;;;11.20;99.90;;;;;;9792549;30;20259;-79
2023/10/31 08:13:39;;;;;;;17.70;11.30;;;11.20;99.90;;;;;;9803278;30;20248;-79
2023/10/31 08:19:00;;;;;;;23.60;15.70;;;11.30;99.90;;;;;;9804374;30;20206;-79
2023/10/31 08:24:21;;;;;;;22.90;15.00;;;11.30;99.90;;;;;;9816269;30;20245;-80
2023/10/31 08:29:43;;;;;;;23.70;16.40;;;11.30;99.90;;;;;;9829165;30;20205;-79
2023/10/31 08:35:04;;;;;;;34.83;27.17;;;11.30;99.90;;;;;;9817660;30;20407;-81
2023/10/31 08:40:25;;;;;;;44.17;31.97;;;11.40;99.90;;;;;;9815609;30;20220;-78
2023/10/31 08:45:47;;;;;;;35.17;27.37;;;11.40;99.90;;;;;;9837203;30;20192;-80
2023/10/31 08:51:08;;;;;;;18.43;14.00;;;11.50;99.90;;;;;;9817058;30;20286;-78
2023/10/31 08:56:30;;;;;;;20.60;13.10;;;11.60;99.90;;;;;;9814204;30;20318;-79
2023/10/31 09:01:50;;;;;;;15.03;11.53;;;11.60;99.90;;;;;;9813756;30;20270;-81
2023/10/31 09:07:12;;;;;;;15.77;11.10;;;11.70;99.90;;;;;;9800703;30;20215;-78
2023/10/31 09:12:33;;;;;;;19.37;12.53;;;11.80;99.90;;;;;;9811964;30;20308;-78
2023/10/31 09:17:54;;;;;;;13.87;10.57;;;11.80;99.90;;;;;;9797610;30;20213;-81
2023/10/31 09:23:17;;;;;;;18.23;10.50;;;11.90;99.90;;;;;;9808206;30;20291;-79
2023/10/31 09:28:40;;;;;;;17.37;11.60;;;11.90;99.90;;;;;;9812953;30;20225;-86
2023/10/31 09:34:03;;;;;;;19.13;13.77;;;12.00;99.90;;;;;;9799189;30;20268;-83
2023/10/31 09:39:24;;;;;;;25.70;17.97;;;12.00;99.90;;;;;;9797466;30;20206;-79
2023/10/31 09:44:46;;;;;;;24.80;16.50;;;11.90;99.90;;;;;;9794883;30;20290;-80
2023/10/31 09:50:09;;;;;;;16.27;11.70;;;12.10;99.90;;;;;;9811435;30;20439;-79
2023/10/31 09:55:30;;;;;;;16.27;10.00;;;12.10;99.90;;;;;;9798322;30;20236;-81
2023/10/31 10:00:52;;;;;;;17.37;9.17;;;12.10;99.90;;;;;;9808516;30;20243;-81
2023/10/31 10:06:13;;;;;;;13.60;8.03;;;12.10;99.90;;;;;;9811901;30;20220;-80
2023/10/31 10:11:35;;;;;;;22.97;15.03;;;12.20;99.90;;;;;;9797830;30;20275;-79
2023/10/31 10:16:57;;;;;;;9.93;8.10;;;12.30;99.90;;;;;;9812009;30;20647;-80
2023/10/31 10:22:20;;;;;;;22.83;11.73;;;12.40;99.90;;;;;;9809121;30;20212;-79
2023/10/31 10:27:45;;;;;;;15.33;8.37;;;12.40;99.90;;;;;;9811131;30;20220;-79
2023/10/31 10:33:06;;;;;;;14.03;8.63;;;12.40;99.90;;;;;;9816936;30;20565;-80
2023/10/31 10:38:32;;;;;;;14.87;10.57;;;12.50;99.90;;;;;;9819332;30;20261;-80
2023/10/31 10:44:07;;;;;;;8.33;6.97;;;12.40;99.90;;;;;;9818422;30;20433;-80
2023/10/31 10:49:32;;;;;;;13.33;9.00;;;12.50;99.90;;;;;;9816285;30;20244;-78
2023/10/31 10:55:04;;;;;;;7.53;6.20;;;12.50;99.90;;;;;;9815491;30;20316;-79
2023/10/31 11:00:26;;;;;;;17.40;12.43;;;12.50;99.90;;;;;;9812587;30;20240;-80
2023/10/31 11:05:47;;;;;;;11.77;8.40;;;12.60;99.90;;;;;;9816648;30;20238;-80
2023/10/31 11:11:09;;;;;;;7.43;6.37;;;12.60;99.90;;;;;;9813337;30;20261;-81
2023/10/31 11:16:41;;;;;;;8.20;5.37;;;12.60;99.90;;;;;;9804513;30;20248;-81
2023/10/31 11:22:05;;;;;;;9.57;6.20;;;12.60;99.90;;;;;;9766999;30;20243;-82
2023/10/31 11:27:26;;;;;;;9.07;4.53;;;12.60;99.90;;;;;;9784700;30;20217;-82
2023/10/31 11:33:08;;;;;;;6.27;4.30;;;12.70;99.90;;;;;;9816511;30;20232;-83
2023/10/31 11:38:38;;;;;;;6.33;4.37;;;12.50;99.90;;;;;;9802572;30;20432;-82
2023/10/31 11:43:59;;;;;;;7.27;4.60;;;12.60;99.90;;;;;;9802407;30;20518;-80
2023/10/31 11:49:56;;;;;;;5.50;3.53;;;12.50;99.90;;;;;;9790166;30;20208;-79
2023/10/31 11:55:17;;;;;;;4.17;3.13;;;12.50;99.90;;;;;;9832547;30;20256;-80
2023/10/31 12:00:38;;;;;;;5.63;3.63;;;12.50;99.90;;;;;;9825340;30;20288;-79
2023/10/31 12:06:00;;;;;;;4.57;3.30;;;12.50;99.90;;;;;;9829104;30;20262;-77
2023/10/31 12:11:23;;;;;;;5.73;3.60;;;12.40;99.90;;;;;;9841736;30;20257;-78
2023/10/31 12:16:44;;;;;;;5.87;4.57;;;12.50;99.90;;;;;;9847821;30;20273;-79
2023/10/31 12:22:15;;;;;;;6.73;4.23;;;12.50;99.90;;;;;;9827011;30;20513;-78
2023/10/31 12:27:44;;;;;;;7.63;3.63;;;12.50;99.90;;;;;;9811684;30;20364;-79
2023/10/31 12:33:05;;;;;;;5.33;3.90;;;12.50;99.90;;;;;;9809211;30;20228;-78
2023/10/31 12:38:27;;;;;;;5.50;4.87;;;12.40;99.90;;;;;;9810701;30;20227;-79
2023/10/31 12:43:49;;;;;;;8.53;5.30;;;12.40;99.90;;;;;;9824547;30;20258;-83
2023/10/31 12:49:18;;;;;;;6.33;5.40;;;12.40;99.90;;;;;;9815370;30;20513;-80
2023/10/31 12:54:40;;;;;;;5.20;4.60;;;12.40;99.90;;;;;;9811891;30;20245;-79
2023/10/31 13:00:02;;;;;;;5.33;4.53;;;12.50;99.90;;;;;;9800474;30;20524;-78
2023/10/31 13:05:26;;;;;;;5.60;4.83;;;12.40;99.90;;;;;;9811043;30;20226;-77
2023/10/31 13:10:47;;;;;;;7.73;5.30;;;12.40;99.90;;;;;;9809148;30;20402;-77
2023/10/31 13:16:09;;;;;;;6.10;4.80;;;12.40;99.90;;;;;;9798948;30;20554;-79
2023/10/31 13:21:30;;;;;;;6.50;4.43;;;12.40;99.90;;;;;;9837014;30;20449;-77
2023/10/31 13:26:51;;;;;;;5.23;3.97;;;12.40;99.90;;;;;;9832782;30;20218;-77
2023/10/31 13:32:13;;;;;;;4.50;3.77;;;12.40;99.90;;;;;;9820076;30;20219;-77
2023/10/31 13:37:35;;;;;;;5.27;4.70;;;12.30;99.90;;;;;;9797886;30;20226;-77
2023/10/31 13:42:57;;;;;;;3.20;2.73;;;12.30;99.90;;;;;;9811266;30;20219;-79
2023/10/31 13:48:18;;;;;;;4.47;3.00;;;12.30;99.90;;;;;;9810484;30;20212;-79
2023/10/31 13:53:40;;;;;;;7.13;4.40;;;12.30;99.90;;;;;;9810959;30;20248;-79
2023/10/31 13:59:01;;;;;;;7.97;4.67;;;12.30;99.90;;;;;;9810846;30;20252;-80
2023/10/31 14:04:23;;;;;;;10.17;5.73;;;12.30;99.90;;;;;;9810864;30;20311;-79
2023/10/31 14:09:44;;;;;;;16.57;7.00;;;12.30;99.90;;;;;;9805925;30;20271;-80
2023/10/31 14:15:06;;;;;;;14.03;6.83;;;12.20;99.90;;;;;;9797879;30;20246;-79
2023/10/31 14:20:28;;;;;;;5.97;4.03;;;12.30;99.90;;;;;;9812072;30;20599;-79
2023/10/31 14:25:49;;;;;;;9.30;4.57;;;12.30;99.90;;;;;;9810926;30;20209;-80
2023/10/31 14:31:11;;;;;;;8.07;4.37;;;12.20;99.90;;;;;;9803023;30;20203;-82
2023/10/31 14:36:32;;;;;;;7.60;3.30;;;12.20;99.90;;;;;;9809688;30;20244;-79
2023/10/31 14:41:53;;;;;;;7.83;4.07;;;12.20;99.90;;;;;;9797042;30;20212;-80
2023/10/31 14:47:16;;;;;;;7.07;4.07;;;12.20;99.90;;;;;;9780041;30;20236;-81
2023/10/31 14:52:37;;;;;;;5.63;3.10;;;12.10;99.90;;;;;;9791926;30;20222;-79
2023/10/31 14:57:59;;;;;;;6.00;3.20;;;12.10;99.90;;;;;;9799454;30;20288;-79
2023/10/31 15:03:20;;;;;;;5.77;3.30;;;12.10;99.90;;;;;;9807178;30;20279;-78
2023/10/31 15:08:41;;;;;;;4.70;3.10;;;12.10;99.90;;;;;;9807955;30;20253;-80
2023/10/31 15:14:03;;;;;;;10.87;3.73;;;12.00;99.90;;;;;;9811908;30;20612;-79
2023/10/31 15:19:25;;;;;;;9.77;4.40;;;11.90;99.90;;;;;;9805413;30;20203;-79
2023/10/31 15:24:47;;;;;;;6.27;4.00;;;11.70;99.90;;;;;;9803304;30;20312;-79
2023/10/31 15:30:09;;;;;;;7.63;4.83;;;11.60;99.90;;;;;;9817053;30;20210;-78
2023/10/31 15:35:30;;;;;;;4.63;3.33;;;11.50;99.90;;;;;;9815834;30;20250;-76
2023/10/31 15:40:53;;;;;;;4.30;2.67;;;11.40;99.90;;;;;;9824343;30;20242;-78
2023/10/31 15:46:18;;;;;;;13.10;10.93;;;11.30;99.90;;;;;;9829917;30;20222;-79
2023/10/31 15:51:40;;;;;;;2.07;1.90;;;11.30;99.90;;;;;;9832674;30;20218;-78
2023/10/31 15:57:02;;;;;;;5.10;2.47;;;11.20;99.90;;;;;;9825219;30;20242;-77
2023/10/31 16:02:23;;;;;;;2.00;1.63;;;11.10;99.90;;;;;;9849633;30;20249;-81
2023/10/31 16:07:45;;;;;;;4.80;2.93;;;11.00;99.90;;;;;;9806102;30;20228;-79
2023/10/31 16:13:06;;;;;;;12.20;4.67;;;10.90;99.90;;;;;;9811155;30;20603;-79
2023/10/31 16:18:28;;;;;;;13.07;6.73;;;10.90;99.90;;;;;;9821530;30;20500;-80
2023/10/31 16:23:52;;;;;;;10.40;6.07;;;10.90;99.90;;;;;;9821953;30;20207;-79
2023/10/31 16:29:15;;;;;;;9.03;4.73;;;10.90;99.90;;;;;;9818211;30;20512;-80
2023/10/31 16:34:36;;;;;;;11.83;5.73;;;10.80;99.90;;;;;;9807093;30;20244;-79
2023/10/31 16:39:57;;;;;;;6.63;3.77;;;10.80;99.90;;;;;;9820820;30;20198;-79
2023/10/31 16:45:18;;;;;;;8.07;4.23;;;10.80;99.90;;;;;;9819600;30;20213;-80
2023/10/31 16:50:39;;;;;;;9.60;5.17;;;10.80;99.90;;;;;;9807194;30;20240;-78
2023/10/31 16:56:01;;;;;;;7.67;5.03;;;10.80;99.90;;;;;;9819011;30;20270;-79
2023/10/31 17:01:23;;;;;;;4.93;3.30;;;10.80;99.90;;;;;;9820044;30;20341;-78
2023/10/31 17:06:43;;;;;;;9.47;4.83;;;10.70;99.90;;;;;;9818972;30;20224;-79
2023/10/31 17:12:05;;;;;;;5.17;3.87;;;10.70;99.90;;;;;;9819800;30;20502;-79
2023/10/31 17:17:26;;;;;;;6.93;4.50;;;10.70;99.90;;;;;;9805930;30;20313;-78
2023/10/31 17:22:48;;;;;;;19.80;10.10;;;10.70;99.90;;;;;;9819736;30;20204;-78
2023/10/31 17:28:09;;;;;;;5.00;3.60;;;10.70;99.90;;;;;;9821169;30;20218;-78
2023/10/31 17:33:30;;;;;;;6.27;4.50;;;10.70;99.90;;;;;;9820780;30;20302;-78
2023/10/31 17:38:51;;;;;;;9.53;6.60;;;10.60;99.90;;;;;;9820390;30;20253;-78
2023/10/31 17:44:13;;;;;;;9.60;5.53;;;10.60;99.90;;;;;;9819378;30;20231;-78
2023/10/31 17:49:34;;;;;;;8.47;4.40;;;10.70;99.90;;;;;;9817518;30;20235;-78
2023/10/31 17:54:55;;;;;;;9.63;5.70;;;10.60;99.90;;;;;;9817766;30;20233;-80
2023/10/31 18:00:18;;;;;;;9.23;5.53;;;10.60;99.90;;;;;;9818754;30;20204;-79
2023/10/31 18:05:39;;;;;;;19.87;9.37;;;10.60;99.90;;;;;;9817488;30;20506;-79
2023/10/31 18:11:01;;;;;;;7.27;4.37;;;10.50;99.90;;;;;;9818327;30;20440;-79
2023/10/31 18:16:22;;;;;;;8.90;4.30;;;10.60;99.90;;;;;;9817960;30;20412;-80
2023/10/31 18:21:43;;;;;;;9.57;4.63;;;10.60;99.90;;;;;;9817619;30;20237;-79
2023/10/31 18:27:07;;;;;;;10.57;5.00;;;10.60;99.90;;;;;;9768826;30;20289;-78
2023/10/31 18:32:28;;;;;;;10.73;5.93;;;10.60;99.90;;;;;;9799547;30;20244;-78
2023/10/31 18:37:49;;;;;;;9.00;5.03;;;10.50;99.90;;;;;;9818195;30;20310;-79
2023/10/31 18:43:10;;;;;;;7.00;4.37;;;10.50;99.90;;;;;;9816365;30;20215;-79
2023/10/31 18:48:32;;;;;;;7.30;4.70;;;10.60;99.90;;;;;;9817034;30;20600;-79
2023/10/31 18:53:54;;;;;;;9.00;3.70;;;10.50;99.90;;;;;;9811105;30;20268;-78
2023/10/31 18:59:15;;;;;;;8.50;4.70;;;10.50;99.90;;;;;;9824725;30;20428;-79
2023/10/31 19:04:36;;;;;;;7.57;3.90;;;10.40;99.90;;;;;;9823581;30;20434;-79
2023/10/31 19:09:57;;;;;;;4.43;3.23;;;10.40;99.90;;;;;;9823681;30;20225;-78
2023/10/31 19:15:19;;;;;;;12.63;5.00;;;10.40;99.90;;;;;;9823086;30;20289;-79
2023/10/31 19:20:40;;;;;;;11.57;5.60;;;10.40;99.90;;;;;;9822630;30;20567;-79
2023/10/31 19:26:02;;;;;;;8.70;5.27;;;10.50;99.90;;;;;;9822907;30;20390;-79
2023/10/31 19:31:23;;;;;;;3.50;2.50;;;10.40;99.90;;;;;;9823333;30;20399;-79
2023/10/31 19:36:44;;;;;;;5.87;2.23;;;10.30;99.90;;;;;;9823144;30;20468;-79
2023/10/31 19:42:06;;;;;;;3.73;1.97;;;10.30;99.90;;;;;;9809704;30;20225;-80
2023/10/31 19:47:27;;;;;;;1.30;0.90;;;10.20;99.90;;;;;;9808452;30;20281;-78
2023/10/31 19:52:48;;;;;;;0.77;0.70;;;10.30;99.90;;;;;;9822889;30;20579;-78
2023/10/31 19:58:09;;;;;;;3.10;0.83;;;10.20;99.90;;;;;;9822327;30;20262;-79
2023/10/31 20:03:30;;;;;;;0.63;0.60;;;10.10;99.90;;;;;;9819288;30;20264;-79
2023/10/31 20:08:53;;;;;;;0.57;0.57;;;10.00;99.90;;;;;;9819852;30;20277;-79
2023/10/31 20:14:14;;;;;;;1.23;0.40;;;9.90;99.90;;;;;;9819227;30;20236;-78
2023/10/31 20:19:35;;;;;;;2.10;0.30;;;9.90;99.90;;;;;;9806260;30;20424;-78
2023/10/31 20:24:56;;;;;;;0.67;0.50;;;9.90;99.90;;;;;;9818893;30;20512;-80
2023/10/31 20:30:18;;;;;;;2.07;1.30;;;9.80;99.90;;;;;;9818781;30;20223;-78
2023/10/31 20:35:39;;;;;;;3.67;0.87;;;9.70;99.90;;;;;;9817629;30;20337;-78
2023/10/31 20:41:00;;;;;;;1.00;0.50;;;9.60;99.90;;;;;;9817186;30;20310;-79
2023/10/31 20:46:22;;;;;;;1.30;0.40;;;9.50;99.90;;;;;;9817186;30;20210;-78
2023/10/31 20:51:43;;;;;;;0.30;0.30;;;9.50;99.90;;;;;;9818576;30;20280;-78
2023/10/31 20:57:05;;;;;;;1.30;0.60;;;9.50;99.90;;;;;;9818240;30;20282;-79
2023/10/31 21:02:26;;;;;;;1.17;0.40;;;9.40;99.90;;;;;;9778975;30;1212577;-79
2023/10/31 21:07:47;;;;;;;0.40;0.30;;;9.30;99.90;;;;;;9819232;30;20212;-80
2023/10/31 21:13:08;;;;;;;0.93;0.50;;;9.30;99.90;;;;;;9819751;30;20207;-80
2023/10/31 21:18:29;;;;;;;0.63;0.33;;;9.20;99.90;;;;;;9807187;30;20212;-79
2023/10/31 21:23:51;;;;;;;0.83;0.50;;;9.20;99.90;;;;;;9819836;30;20264;-76
2023/10/31 21:29:13;;;;;;;1.60;0.40;;;9.20;99.90;;;;;;9818337;30;20270;-80
2023/10/31 21:34:34;;;;;;;2.73;0.60;;;9.10;99.90;;;;;;9819489;30;20537;-80
2023/10/31 21:39:55;;;;;;;0.70;0.57;;;9.10;99.90;;;;;;9806060;30;20512;-79
2023/10/31 21:45:16;;;;;;;1.07;0.37;;;9.10;99.90;;;;;;9821371;30;20243;-80
2023/10/31 21:50:38;;;;;;;0.40;0.30;;;9.00;99.90;;;;;;9855746;30;20203;-78
2023/10/31 21:55:59;;;;;;;2.43;0.70;;;8.90;99.90;;;;;;9833635;30;20236;-79
2023/10/31 22:01:20;;;;;;;1.87;0.50;;;8.90;99.90;;;;;;9805095;30;20276;-80
2023/10/31 22:06:41;;;;;;;1.03;0.60;;;8.90;99.90;;;;;;9816855;30;20282;-80
2023/10/31 22:12:03;;;;;;;1.50;0.60;;;8.90;99.90;;;;;;9818274;30;20278;-80
2023/10/31 22:17:25;;;;;;;2.53;0.60;;;8.80;99.90;;;;;;9817848;30;20292;-80
2023/10/31 22:22:46;;;;;;;1.30;0.53;;;8.70;99.90;;;;;;9816824;30;20235;-79
2023/10/31 22:28:07;;;;;;;1.83;0.50;;;8.70;99.90;;;;;;9816837;30;20209;-79
2023/10/31 22:33:28;;;;;;;1.63;0.60;;;8.60;99.90;;;;;;9817745;30;20242;-79
2023/10/31 22:38:49;;;;;;;1.30;0.47;;;8.50;99.90;;;;;;9816093;30;20210;-79
2023/10/31 22:44:11;;;;;;;1.13;0.63;;;8.40;99.90;;;;;;9817505;30;20214;-79
2023/10/31 22:49:32;;;;;;;2.00;0.70;;;8.40;99.90;;;;;;9817313;30;20209;-79
2023/10/31 22:54:53;;;;;;;0.97;0.70;;;8.50;99.90;;;;;;9792184;30;20236;-79
2023/10/31 23:00:21;;;;;;;0.93;0.33;;;8.40;99.90;;;;;;9781027;30;20269;-79
2023/10/31 23:05:44;;;;;;;1.67;0.63;;;8.30;99.90;;;;;;9786782;30;20205;-79
2023/10/31 23:11:06;;;;;;;9.93;0.80;;;;;;;;;;9791808;30;20216;-79
2023/10/31 23:16:28;;;;;;;2.37;0.70;;;;;;;;;;9817355;30;20259;-79
2023/10/31 23:21:50;;;;;;;2.93;0.57;;;8.30;99.90;;;;;;9815689;30;20215;-79
2023/10/31 23:27:32;;;;;;;1.87;0.70;;;8.20;99.90;;;;;;9780929;30;20207;-80
2023/10/31 23:32:53;;;;;;;1.93;0.47;;;8.20;99.90;;;;;;9780713;30;20281;-79
2023/10/31 23:38:14;;;;;;;1.40;0.73;;;8.10;99.90;;;;;;9814523;30;20530;-77
2023/10/31 23:43:35;;;;;;;3.80;0.90;;;8.30;99.90;;;;;;9821917;30;20207;-79
2023/10/31 23:48:57;;;;;;;2.03;0.60;;;;;;;;;;9816876;30;20215;-79
2023/10/31 23:54:18;;;;;;;1.23;0.50;;;7.90;99.90;;;;;;9809371;30;20317;-78
2023/10/31 23:59:40;;;;;;;0.83;0.50;;;7.90;99.90;;;;;;9821497;30;20444;-79
